createdAt,value
2022-07-27T00:01:13.514Z,15.10
2022-07-27T00:04:01.628Z,15.00
2022-07-27T00:06:50.377Z,15.60
2022-07-27T00:09:42.523Z,14.90
2022-07-27T00:12:30.720Z,14.80
2022-07-27T00:15:19.850Z,14.80
2022-07-27T00:18:07.836Z,14.60
2022-07-27T00:20:56.596Z,14.30
2022-07-27T00:23:43.941Z,14.60
2022-07-27T00:26:33.843Z,14.50
2022-07-27T00:29:21.911Z,15.10
2022-07-27T00:32:12.749Z,14.40
2022-07-27T00:35:01.139Z,14.40
2022-07-27T00:37:48.917Z,14.30
2022-07-27T00:40:36.573Z,15.00
2022-07-27T00:43:25.440Z,12.10
2022-07-27T00:46:14.289Z,14.20
2022-07-27T00:49:02.947Z,14.10
2022-07-27T00:51:51.910Z,14.20
2022-07-27T00:54:40.585Z,13.70
2022-07-27T00:57:29.338Z,13.80
2022-07-27T01:00:19.379Z,14.90
2022-07-27T01:03:09.192Z,13.70
2022-07-27T01:05:58.010Z,13.70
2022-07-27T01:08:48.916Z,13.70
2022-07-27T01:11:36.413Z,13.60
2022-07-27T01:14:28.686Z,13.60
2022-07-27T01:17:19.884Z,13.50
2022-07-27T01:20:09.169Z,13.40
2022-07-27T01:22:58.413Z,13.40
2022-07-27T01:25:46.066Z,13.40
2022-07-27T01:28:34.520Z,13.30
2022-07-27T01:31:22.889Z,13.30
2022-07-27T01:34:10.804Z,13.40
2022-07-27T01:37:00.037Z,13.20
2022-07-27T01:39:49.305Z,11.90
2022-07-27T01:42:37.610Z,13.70
2022-07-27T01:45:26.000Z,13.10
2022-07-27T01:48:14.061Z,14.70
2022-07-27T01:51:02.242Z,13.50
2022-07-27T01:53:50.405Z,13.00
2022-07-27T01:56:40.072Z,13.00
2022-07-27T01:59:27.655Z,13.70
2022-07-27T02:02:19.392Z,12.90
2022-07-27T02:05:08.341Z,12.90
2022-07-27T02:07:56.798Z,12.80
2022-07-27T02:10:58.466Z,12.80
2022-07-27T02:13:48.695Z,12.70
2022-07-27T02:16:39.757Z,12.60
2022-07-27T02:19:28.678Z,13.30
2022-07-27T02:22:17.305Z,12.80
2022-07-27T02:25:05.397Z,12.60
2022-07-27T02:27:53.587Z,12.50
2022-07-27T02:30:43.043Z,12.50
2022-07-27T02:33:31.601Z,12.40
2022-07-27T02:36:19.270Z,12.40
2022-07-27T02:39:08.142Z,12.40
2022-07-27T02:41:56.345Z,12.30
2022-07-27T02:44:44.883Z,12.30
2022-07-27T02:47:37.472Z,12.30
2022-07-27T02:50:26.069Z,12.20
2022-07-27T02:53:16.910Z,12.20
2022-07-27T02:56:04.601Z,12.20
2022-07-27T02:58:52.295Z,12.10
2022-07-27T03:01:41.859Z,12.20
2022-07-27T03:04:31.340Z,12.20
2022-07-27T03:07:19.189Z,12.10
2022-07-27T03:10:07.074Z,12.10
2022-07-27T03:12:54.502Z,12.20
2022-07-27T03:15:43.019Z,12.10
2022-07-27T03:18:30.735Z,12.10
2022-07-27T03:21:20.142Z,12.10
2022-07-27T03:24:09.327Z,12.10
2022-07-27T03:26:58.063Z,12.00
2022-07-27T03:29:46.778Z,11.90
2022-07-27T03:32:35.441Z,11.90
2022-07-27T03:35:23.117Z,11.80
2022-07-27T03:38:12.236Z,12.00
2022-07-27T03:41:03.550Z,13.40
2022-07-27T03:43:52.056Z,11.90
2022-07-27T03:46:40.080Z,11.80
2022-07-27T03:49:27.499Z,11.80
2022-07-27T03:52:17.824Z,11.70
2022-07-27T03:55:11.284Z,11.70
2022-07-27T03:57:59.689Z,11.70
2022-07-27T04:00:47.935Z,11.70
2022-07-27T04:03:42.414Z,13.70
2022-07-27T04:06:31.863Z,11.70
2022-07-27T04:09:19.877Z,10.30
2022-07-27T04:12:13.731Z,11.70
2022-07-27T04:15:06.175Z,12.00
2022-07-27T04:17:57.484Z,11.70
2022-07-27T04:20:47.867Z,13.60
2022-07-27T04:23:38.338Z,11.60
2022-07-27T04:26:26.232Z,11.60
2022-07-27T04:29:20.131Z,11.60
2022-07-27T04:32:09.572Z,11.60
2022-07-27T04:34:57.556Z,11.60
2022-07-27T04:37:58.693Z,11.70
2022-07-27T04:40:47.904Z,13.20
2022-07-27T04:43:35.788Z,11.60
2022-07-27T04:46:25.299Z,11.80
2022-07-27T04:49:14.042Z,11.70
2022-07-27T04:52:03.352Z,11.80
2022-07-27T04:54:52.987Z,11.80
2022-07-27T04:57:42.281Z,11.90
2022-07-27T05:00:30.501Z,12.20
2022-07-27T05:03:19.897Z,11.90
2022-07-27T05:06:07.991Z,11.90
2022-07-27T05:08:55.789Z,12.10
2022-07-27T05:11:50.877Z,12.40
2022-07-27T05:14:40.142Z,12.50
2022-07-27T05:17:28.036Z,12.50
2022-07-27T05:20:18.327Z,12.50
2022-07-27T05:23:06.456Z,13.00
2022-07-27T05:25:54.953Z,12.60
2022-07-27T05:28:44.047Z,12.50
2022-07-27T05:31:32.089Z,12.70
2022-07-27T05:34:21.890Z,12.70
2022-07-27T05:37:11.815Z,12.80
2022-07-27T05:40:02.181Z,13.30
2022-07-27T05:42:50.989Z,14.50
2022-07-27T05:45:39.250Z,12.80
2022-07-27T05:48:27.904Z,12.90
2022-07-27T05:51:16.274Z,13.00
2022-07-27T05:54:05.963Z,13.10
2022-07-27T05:56:54.360Z,13.10
2022-07-27T05:59:41.931Z,11.50
2022-07-27T06:02:31.889Z,13.30
2022-07-27T06:05:20.376Z,13.40
2022-07-27T06:08:09.632Z,13.50
2022-07-27T06:10:59.663Z,13.50
2022-07-27T06:13:47.551Z,13.60
2022-07-27T06:16:35.299Z,14.00
2022-07-27T06:19:23.449Z,13.90
2022-07-27T06:22:23.245Z,14.60
2022-07-27T06:25:11.628Z,14.40
2022-07-27T06:28:00.894Z,14.60
2022-07-27T06:30:49.179Z,14.90
2022-07-27T06:33:37.149Z,14.70
2022-07-27T06:36:26.156Z,14.80
2022-07-27T06:39:17.202Z,14.70
2022-07-27T06:42:05.606Z,14.80
2022-07-27T06:44:55.074Z,14.80
2022-07-27T06:47:49.054Z,15.30
2022-07-27T06:50:38.940Z,14.10
2022-07-27T06:53:27.963Z,15.10
2022-07-27T06:56:20.236Z,15.10
2022-07-27T06:59:08.151Z,15.20
2022-07-27T07:01:57.834Z,15.30
2022-07-27T07:04:45.428Z,15.40
2022-07-27T07:07:33.381Z,15.50
2022-07-27T07:10:23.998Z,15.50
2022-07-27T07:13:12.026Z,16.10
2022-07-27T07:16:00.620Z,15.60
2022-07-27T07:18:52.669Z,15.70
2022-07-27T07:21:41.132Z,15.70
2022-07-27T07:24:30.283Z,16.00
2022-07-27T07:27:19.395Z,16.00
2022-07-27T07:30:08.410Z,16.10
2022-07-27T07:32:56.806Z,16.10
2022-07-27T07:36:13.498Z,16.50
2022-07-27T07:38:55.747Z,16.80
2022-07-27T07:41:45.418Z,17.00
2022-07-27T07:44:34.075Z,17.10
2022-07-27T07:47:26.632Z,17.10
2022-07-27T07:50:15.027Z,16.80
2022-07-27T07:53:05.347Z,16.60
2022-07-27T07:55:53.566Z,16.80
2022-07-27T07:58:42.336Z,16.60
2022-07-27T08:01:33.414Z,16.60
2022-07-27T08:04:21.865Z,17.30
2022-07-27T08:07:10.210Z,16.60
2022-07-27T08:10:00.696Z,16.80
2022-07-27T08:12:51.539Z,16.70
2022-07-27T08:15:40.087Z,16.70
2022-07-27T08:18:28.767Z,16.60
2022-07-27T08:21:16.429Z,16.70
2022-07-27T08:24:04.039Z,16.80
2022-07-27T08:26:53.473Z,17.10
2022-07-27T08:29:41.490Z,17.20
2022-07-27T08:32:29.837Z,17.40
2022-07-27T08:35:17.866Z,17.50
2022-07-27T08:38:06.903Z,17.50
2022-07-27T08:40:56.438Z,17.70
2022-07-27T08:43:46.736Z,17.90
2022-07-27T08:46:36.086Z,17.90
2022-07-27T08:49:41.403Z,17.90
2022-07-27T08:52:35.979Z,17.80
2022-07-27T08:55:24.701Z,17.60
2022-07-27T08:58:25.527Z,17.50
2022-07-27T09:01:16.691Z,17.60
2022-07-27T09:04:04.851Z,17.90
2022-07-27T09:06:54.278Z,18.20
2022-07-27T09:09:45.621Z,19.60
2022-07-27T09:12:34.459Z,18.60
2022-07-27T09:15:22.663Z,18.90
2022-07-27T09:18:36.827Z,19.10
2022-07-27T09:21:26.044Z,19.00
2022-07-27T09:24:36.746Z,18.90
2022-07-27T09:27:31.307Z,18.70
2022-07-27T09:30:28.121Z,19.70
2022-07-27T09:33:16.608Z,18.20
2022-07-27T09:36:06.976Z,18.20
2022-07-27T09:39:01.721Z,17.90
2022-07-27T09:41:51.230Z,18.20
2022-07-27T09:44:42.627Z,18.40
2022-07-27T09:47:34.770Z,18.40
2022-07-27T09:50:31.144Z,18.40
2022-07-27T09:53:43.262Z,18.50
2022-07-27T09:56:33.849Z,18.60
2022-07-27T09:59:21.275Z,18.90
2022-07-27T10:02:08.883Z,19.00
2022-07-27T10:05:32.118Z,20.40
2022-07-27T10:08:27.259Z,18.80
2022-07-27T10:11:21.351Z,18.60
2022-07-27T10:14:11.989Z,18.60
2022-07-27T10:17:07.767Z,18.70
2022-07-27T10:19:56.745Z,18.70
2022-07-27T10:22:55.565Z,18.90
2022-07-27T10:25:45.357Z,19.10
2022-07-27T10:28:33.050Z,19.40
2022-07-27T10:31:23.706Z,19.30
2022-07-27T10:34:12.496Z,19.50
2022-07-27T10:37:15.004Z,19.60
2022-07-27T10:40:20.631Z,20.10
2022-07-27T10:43:11.869Z,20.00
2022-07-27T10:46:01.753Z,19.70
2022-07-27T10:48:50.885Z,19.50
2022-07-27T10:51:38.872Z,19.20
2022-07-27T10:54:32.717Z,18.80
2022-07-27T10:57:28.747Z,18.00
2022-07-27T11:00:19.946Z,18.80
2022-07-27T11:03:15.825Z,18.90
2022-07-27T11:06:31.308Z,19.40
2022-07-27T11:10:02.994Z,19.80
2022-07-27T11:12:29.348Z,21.10
2022-07-27T11:15:24.826Z,21.00
2022-07-27T11:18:16.890Z,21.50
2022-07-27T11:21:14.713Z,21.00
2022-07-27T11:24:06.482Z,21.20
2022-07-27T11:26:53.982Z,20.10
2022-07-27T11:29:43.707Z,19.80
2022-07-27T11:32:36.310Z,19.80
2022-07-27T11:35:24.303Z,19.90
2022-07-27T11:38:12.881Z,20.00
2022-07-27T11:41:15.086Z,20.30
2022-07-27T11:44:09.552Z,21.40
2022-07-27T11:47:01.923Z,20.00
2022-07-27T11:50:07.611Z,20.20
2022-07-27T11:53:01.541Z,20.10
2022-07-27T11:55:50.146Z,20.40
2022-07-27T11:58:53.038Z,19.50
2022-07-27T12:01:46.090Z,19.30
2022-07-27T12:04:35.061Z,19.20
2022-07-27T12:07:30.979Z,19.10
2022-07-27T12:10:19.284Z,18.60
2022-07-27T12:13:07.480Z,20.40
2022-07-27T12:15:58.156Z,19.40
2022-07-27T12:18:50.562Z,19.50
2022-07-27T12:21:38.754Z,19.70
2022-07-27T12:24:40.792Z,20.00
2022-07-27T12:27:30.791Z,20.70
2022-07-27T12:30:20.358Z,20.30
2022-07-27T12:33:10.143Z,20.50
2022-07-27T12:35:58.987Z,20.10
2022-07-27T12:38:53.820Z,20.20
2022-07-27T12:41:42.798Z,22.00
2022-07-27T12:44:39.934Z,20.30
2022-07-27T12:47:42.741Z,20.40
2022-07-27T12:50:31.309Z,20.80
2022-07-27T12:53:22.985Z,19.50
2022-07-27T12:56:27.323Z,21.00
2022-07-27T12:59:29.579Z,20.80
2022-07-27T13:02:20.417Z,21.00
2022-07-27T13:05:09.901Z,21.20
2022-07-27T13:07:59.323Z,21.60
2022-07-27T13:10:48.989Z,21.70
2022-07-27T13:13:37.521Z,21.90
2022-07-27T13:16:26.599Z,22.30
2022-07-27T13:19:16.247Z,22.20
2022-07-27T13:22:11.572Z,22.10
2022-07-27T13:24:58.835Z,21.60
2022-07-27T13:27:47.071Z,21.00
2022-07-27T13:30:35.139Z,20.90
2022-07-27T13:33:24.796Z,20.50
2022-07-27T13:36:15.640Z,20.20
2022-07-27T13:39:13.898Z,20.00
2022-07-27T13:42:05.270Z,21.40
2022-07-27T13:45:08.626Z,20.60
2022-07-27T13:47:58.312Z,20.80
2022-07-27T13:50:47.297Z,21.20
2022-07-27T13:53:35.126Z,21.50
2022-07-27T13:56:22.562Z,21.70
2022-07-27T13:59:13.116Z,21.90
2022-07-27T14:02:06.752Z,22.10
2022-07-27T14:04:56.767Z,21.90
2022-07-27T14:10:56.882Z,21.40
2022-07-27T14:13:45.766Z,21.20
2022-07-27T14:16:36.166Z,20.90
2022-07-27T14:19:23.937Z,20.70
2022-07-27T14:22:11.649Z,20.80
2022-07-27T14:25:13.904Z,21.00
2022-07-27T14:28:06.698Z,20.90
2022-07-27T14:30:56.099Z,21.00
2022-07-27T14:33:52.993Z,20.90
2022-07-27T14:36:47.328Z,20.80
2022-07-27T14:39:34.719Z,21.20
2022-07-27T14:42:25.271Z,20.60
2022-07-27T14:45:16.236Z,20.50
2022-07-27T14:48:03.612Z,20.50
2022-07-27T14:50:52.654Z,20.60
2022-07-27T14:53:41.546Z,20.70
2022-07-27T14:56:29.547Z,20.90
2022-07-27T14:59:17.321Z,20.80
2022-07-27T15:02:07.424Z,20.80
2022-07-27T15:04:55.038Z,20.70
2022-07-27T15:07:44.032Z,20.70
2022-07-27T15:10:37.089Z,20.70
2022-07-27T15:13:28.329Z,20.60
2022-07-27T15:16:16.304Z,21.10
2022-07-27T15:19:06.025Z,22.80
2022-07-27T15:21:54.469Z,21.60
2022-07-27T15:24:42.055Z,21.40
2022-07-27T15:27:30.304Z,22.30
2022-07-27T15:30:20.355Z,21.30
2022-07-27T15:33:12.393Z,21.10
2022-07-27T15:36:01.576Z,21.10
2022-07-27T15:38:50.938Z,21.00
2022-07-27T15:41:41.697Z,21.10
2022-07-27T15:44:29.469Z,21.10
2022-07-27T15:47:17.620Z,21.20
2022-07-27T15:50:09.813Z,21.30
2022-07-27T15:52:59.415Z,22.30
2022-07-27T15:55:52.813Z,20.70
2022-07-27T15:59:02.266Z,22.20
2022-07-27T16:01:49.914Z,21.30
2022-07-27T16:04:39.434Z,21.30
2022-07-27T16:07:31.399Z,21.20
2022-07-27T16:10:30.955Z,20.80
2022-07-27T16:13:19.159Z,20.70
2022-07-27T16:16:25.298Z,20.70
2022-07-27T16:19:14.295Z,20.70
2022-07-27T16:22:03.883Z,20.50
2022-07-27T16:24:51.988Z,20.40
2022-07-27T16:27:41.595Z,20.40
2022-07-27T16:30:33.954Z,20.40
2022-07-27T16:33:26.856Z,20.50
2022-07-27T16:36:17.202Z,20.50
2022-07-27T16:39:04.610Z,20.70
2022-07-27T16:41:54.536Z,21.20
2022-07-27T16:44:47.525Z,20.90
2022-07-27T16:47:35.616Z,20.80
2022-07-27T16:50:23.861Z,20.90
2022-07-27T16:53:15.416Z,21.00
2022-07-27T16:56:06.884Z,21.00
2022-07-27T16:58:58.766Z,21.00
2022-07-27T17:01:56.271Z,20.40
2022-07-27T17:04:47.004Z,22.10
2022-07-27T17:07:34.766Z,21.50
2022-07-27T17:10:26.891Z,21.40
2022-07-27T17:13:33.726Z,21.30
2022-07-27T17:16:26.994Z,21.40
2022-07-27T17:19:19.232Z,21.20
2022-07-27T17:22:10.757Z,21.30
2022-07-27T17:25:05.927Z,20.90
2022-07-27T17:27:54.252Z,20.90
2022-07-27T17:30:42.168Z,21.00
2022-07-27T17:33:30.101Z,21.00
2022-07-27T17:36:20.049Z,20.90
2022-07-27T17:39:08.925Z,20.90
2022-07-27T17:41:58.841Z,21.00
2022-07-27T17:44:46.300Z,20.80
2022-07-27T17:47:34.084Z,20.90
2022-07-27T17:50:22.022Z,21.00
2022-07-27T17:53:11.063Z,20.70
2022-07-27T17:55:58.637Z,20.80
2022-07-27T17:58:46.997Z,20.60
2022-07-27T18:01:47.615Z,20.70
2022-07-27T18:04:39.932Z,20.70
2022-07-27T18:07:28.275Z,20.70
2022-07-27T18:10:17.024Z,20.80
2022-07-27T18:13:07.976Z,20.70
2022-07-27T18:15:55.731Z,20.70
2022-07-27T18:18:43.744Z,21.60
2022-07-27T18:21:31.050Z,20.60
2022-07-27T18:24:23.841Z,20.50
2022-07-27T18:27:12.576Z,20.40
2022-07-27T18:30:00.664Z,20.30
2022-07-27T18:32:48.228Z,20.30
2022-07-27T18:35:36.381Z,20.40
2022-07-27T18:38:24.632Z,20.10
2022-07-27T18:41:14.169Z,20.10
2022-07-27T18:44:10.953Z,19.80
2022-07-27T18:46:58.406Z,19.60
2022-07-27T18:49:46.868Z,18.00
2022-07-27T18:52:34.805Z,19.30
2022-07-27T18:55:25.724Z,19.20
2022-07-27T18:58:15.476Z,19.60
2022-07-27T19:01:04.464Z,19.00
2022-07-27T19:03:52.025Z,18.70
2022-07-27T19:06:39.773Z,18.60
2022-07-27T19:09:29.519Z,18.60
2022-07-27T19:12:17.635Z,18.50
2022-07-27T19:15:05.473Z,18.50
2022-07-27T19:17:54.358Z,18.40
2022-07-27T19:20:42.637Z,18.30
2022-07-27T19:23:30.232Z,18.20
2022-07-27T19:26:18.438Z,18.10
2022-07-27T19:29:06.850Z,17.80
2022-07-27T19:31:55.034Z,17.90
2022-07-27T19:34:44.788Z,17.70
2022-07-27T19:37:32.358Z,17.80
2022-07-27T19:43:28.875Z,17.30
2022-07-27T19:46:16.705Z,17.20
2022-07-27T19:49:04.061Z,17.20
2022-07-27T19:51:53.220Z,17.20
2022-07-27T19:54:40.667Z,16.90
2022-07-27T19:57:28.142Z,17.40
2022-07-27T20:00:18.529Z,17.40
2022-07-27T20:03:06.082Z,17.40
2022-07-27T20:05:54.534Z,17.40
2022-07-27T20:08:43.523Z,17.40
2022-07-27T20:11:31.989Z,17.40
2022-07-27T20:14:19.736Z,17.30
2022-07-27T20:17:07.330Z,17.30
2022-07-27T20:19:54.757Z,17.20
2022-07-27T20:22:42.489Z,17.20
2022-07-27T20:25:31.407Z,17.20
2022-07-27T20:28:18.620Z,17.10
2022-07-27T20:31:06.365Z,17.10
2022-07-27T20:33:53.822Z,17.10
2022-07-27T20:36:41.415Z,17.00
2022-07-27T20:39:29.425Z,16.90
2022-07-27T20:42:24.150Z,17.00
2022-07-27T20:45:14.654Z,17.00
2022-07-27T20:48:08.429Z,17.80
2022-07-27T20:50:56.823Z,17.00
2022-07-27T20:53:44.533Z,16.90
2022-07-27T20:56:33.010Z,16.90
2022-07-27T20:59:23.147Z,16.80
2022-07-27T21:02:11.597Z,17.50
2022-07-27T21:05:00.370Z,16.90
2022-07-27T21:07:48.223Z,16.80
2022-07-27T21:10:36.171Z,16.80
2022-07-27T21:13:23.581Z,16.70
2022-07-27T21:16:13.116Z,16.70
2022-07-27T21:19:00.681Z,16.70
2022-07-27T21:21:48.357Z,16.80
2022-07-27T21:24:36.777Z,16.70
2022-07-27T21:27:25.151Z,16.70
2022-07-27T21:30:14.018Z,16.70
2022-07-27T21:33:21.845Z,16.60
2022-07-27T21:36:12.271Z,16.70
2022-07-27T21:39:00.502Z,16.60
2022-07-27T21:41:48.489Z,16.60
2022-07-27T21:44:37.666Z,16.60
2022-07-27T21:47:25.833Z,16.50
2022-07-27T21:50:14.984Z,16.50
2022-07-27T21:53:02.612Z,16.50
2022-07-27T21:55:50.215Z,16.40
2022-07-27T21:58:38.320Z,16.40
2022-07-27T22:01:26.995Z,16.50
2022-07-27T22:04:16.391Z,16.30
2022-07-27T22:07:08.592Z,16.30
2022-07-27T22:10:07.587Z,16.30
2022-07-27T22:12:55.571Z,16.20
2022-07-27T22:15:43.793Z,16.20
2022-07-27T22:18:31.980Z,16.20
2022-07-27T22:21:18.931Z,16.10
2022-07-27T22:24:11.158Z,16.10
2022-07-27T22:26:59.049Z,16.00
2022-07-27T22:29:46.607Z,16.00
2022-07-27T22:32:34.535Z,15.90
2022-07-27T22:35:22.872Z,15.80
2022-07-27T22:38:10.735Z,15.80
2022-07-27T22:41:00.857Z,15.80
2022-07-27T22:43:50.113Z,15.70
2022-07-27T22:46:37.957Z,15.70
2022-07-27T22:49:26.528Z,15.60
2022-07-27T22:52:17.379Z,15.60
2022-07-27T22:55:05.951Z,15.60
2022-07-27T22:57:55.248Z,15.90
2022-07-27T23:00:43.102Z,15.60
2022-07-27T23:03:30.910Z,15.60
2022-07-27T23:06:18.064Z,15.60
2022-07-27T23:09:06.210Z,15.50
2022-07-27T23:11:54.571Z,15.70
2022-07-27T23:14:44.135Z,15.60
2022-07-27T23:17:37.325Z,15.50
2022-07-27T23:20:24.835Z,15.50
2022-07-27T23:23:16.642Z,15.40
2022-07-27T23:26:04.631Z,15.50
2022-07-27T23:28:54.868Z,15.40
2022-07-27T23:31:43.601Z,15.40
2022-07-27T23:34:35.674Z,15.40
2022-07-27T23:37:23.581Z,15.30
2022-07-27T23:40:12.194Z,15.20
2022-07-27T23:42:59.644Z,16.80
2022-07-27T23:45:49.617Z,15.20
2022-07-27T23:48:39.060Z,15.10
2022-07-27T23:51:27.129Z,15.20
2022-07-27T23:54:15.593Z,15.10
2022-07-27T23:57:03.528Z,15.20
2022-07-27T23:59:53.955Z,15.10
